sensor_id;sensor_type;location;lat;lon;timestamp;pressure;altitude;pressure_sealevel;temperature;humidity
43217;BME280;60511;42.686;23.300;2022-10-26T00:00:11;95196.03;;;23.65;36.54
43217;BME280;60511;42.686;23.300;2022-10-26T00:02:11;95198.31;;;23.63;36.69
43217;BME280;60511;42.686;23.300;2022-10-26T00:04:11;95192.56;;;23.65;36.66
43217;BME280;60511;42.686;23.300;2022-10-26T00:06:13;95194.94;;;23.66;36.50
43217;BME280;60511;42.686;23.300;2022-10-26T00:08:14;95188.75;;;23.66;36.50
43217;BME280;60511;42.686;23.300;2022-10-26T00:10:14;95192.13;;;23.63;36.68
43217;BME280;60511;42.686;23.300;2022-10-26T00:12:14;95196.75;;;23.62;36.78
43217;BME280;60511;42.686;23.300;2022-10-26T00:14:14;95197.53;;;23.63;36.71
43217;BME280;60511;42.686;23.300;2022-10-26T00:16:21;95194.03;;;23.62;36.77
43217;BME280;60511;42.686;23.300;2022-10-26T00:18:22;95195.59;;;23.63;36.79
43217;BME280;60511;42.686;23.300;2022-10-26T00:20:22;95201.81;;;23.64;36.70
43217;BME280;60511;42.686;23.300;2022-10-26T00:22:23;95194.03;;;23.62;36.65
43217;BME280;60511;42.686;23.300;2022-10-26T00:24:23;95194.59;;;23.68;36.46
43217;BME280;60511;42.686;23.300;2022-10-26T00:26:23;95196.59;;;23.71;36.31
43217;BME280;60511;42.686;23.300;2022-10-26T00:28:24;95203.81;;;23.67;36.33
43217;BME280;60511;42.686;23.300;2022-10-26T00:30:24;95194.47;;;23.64;36.58
43217;BME280;60511;42.686;23.300;2022-10-26T00:32:24;95192.78;;;23.60;36.69
43217;BME280;60511;42.686;23.300;2022-10-26T00:34:25;95199.78;;;23.61;36.56
43217;BME280;60511;42.686;23.300;2022-10-26T00:36:25;95200.09;;;23.59;36.71
43217;BME280;60511;42.686;23.300;2022-10-26T00:38:26;95199.66;;;23.57;36.53
43217;BME280;60511;42.686;23.300;2022-10-26T00:40:26;95198.09;;;23.56;36.61
43217;BME280;60511;42.686;23.300;2022-10-26T00:42:27;95202.25;;;23.54;36.78
43217;BME280;60511;42.686;23.300;2022-10-26T00:45:03;95195.72;;;23.55;36.46
43217;BME280;60511;42.686;23.300;2022-10-26T00:46:54;95190.00;;;23.56;36.82
43217;BME280;60511;42.686;23.300;2022-10-26T00:48:55;95189.19;;;23.56;36.61
43217;BME280;60511;42.686;23.300;2022-10-26T00:50:57;95195.41;;;23.56;36.65
43217;BME280;60511;42.686;23.300;2022-10-26T00:52:58;95185.69;;;23.55;36.42
43217;BME280;60511;42.686;23.300;2022-10-26T00:54:59;95188.41;;;23.55;36.42
43217;BME280;60511;42.686;23.300;2022-10-26T00:57:00;95181.00;;;23.52;36.72
43217;BME280;60511;42.686;23.300;2022-10-26T00:59:05;95181.78;;;23.53;36.46
43217;BME280;60511;42.686;23.300;2022-10-26T01:01:07;95180.53;;;23.50;36.49
43217;BME280;60511;42.686;23.300;2022-10-26T01:03:08;95181.00;;;23.52;36.31
43217;BME280;60511;42.686;23.300;2022-10-26T01:05:09;95183.69;;;23.52;36.65
43217;BME280;60511;42.686;23.300;2022-10-26T01:07:10;95177.84;;;23.50;36.69
43217;BME280;60511;42.686;23.300;2022-10-26T01:09:11;95184.47;;;23.53;36.58
43217;BME280;60511;42.686;23.300;2022-10-26T01:11:12;95177.47;;;23.52;36.67
43217;BME280;60511;42.686;23.300;2022-10-26T01:13:13;95177.84;;;23.50;36.61
43217;BME280;60511;42.686;23.300;2022-10-26T01:15:14;95176.69;;;23.51;36.68
43217;BME280;60511;42.686;23.300;2022-10-26T01:24:07;95176.25;;;23.49;36.41
43217;BME280;60511;42.686;23.300;2022-10-26T01:29:01;95178.19;;;23.49;36.58
43217;BME280;60511;42.686;23.300;2022-10-26T01:30:43;95183.56;;;23.49;36.41
43217;BME280;60511;42.686;23.300;2022-10-26T01:36:52;95183.56;;;23.49;36.58
43217;BME280;60511;42.686;23.300;2022-10-26T01:38:57;95174.31;;;23.50;36.53
43217;BME280;60511;42.686;23.300;2022-10-26T01:43:09;95172.78;;;23.49;36.33
43217;BME280;60511;42.686;23.300;2022-10-26T01:45:12;95173.09;;;23.47;36.69
43217;BME280;60511;42.686;23.300;2022-10-26T01:47:14;95160.38;;;23.47;36.70
43217;BME280;60511;42.686;23.300;2022-10-26T01:49:22;95162.28;;;23.47;36.54
43217;BME280;60511;42.686;23.300;2022-10-26T01:51:25;95163.44;;;23.46;36.44
43217;BME280;60511;42.686;23.300;2022-10-26T01:53:25;95169.63;;;23.46;36.28
43217;BME280;60511;42.686;23.300;2022-10-26T01:57:36;95169.28;;;23.48;36.29
43217;BME280;60511;42.686;23.300;2022-10-26T02:02:05;95163.00;;;23.44;36.29
43217;BME280;60511;42.686;23.300;2022-10-26T02:14:35;95169.94;;;23.45;36.25
43217;BME280;60511;42.686;23.300;2022-10-26T02:16:53;95172.22;;;23.43;36.28
43217;BME280;60511;42.686;23.300;2022-10-26T02:19:02;95178.75;;;23.42;36.57
43217;BME280;60511;42.686;23.300;2022-10-26T02:21:06;95173.34;;;23.42;36.58
43217;BME280;60511;42.686;23.300;2022-10-26T02:23:08;95175.69;;;23.43;36.24
43217;BME280;60511;42.686;23.300;2022-10-26T02:25:11;95175.34;;;23.45;36.31
43217;BME280;60511;42.686;23.300;2022-10-26T02:27:15;95176.13;;;23.45;36.35
43217;BME280;60511;42.686;23.300;2022-10-26T02:29:17;95171.88;;;23.44;36.26
43217;BME280;60511;42.686;23.300;2022-10-26T02:31:18;95174.56;;;23.44;36.59
43217;BME280;60511;42.686;23.300;2022-10-26T02:33:19;95179.19;;;23.44;36.49
43217;BME280;60511;42.686;23.300;2022-10-26T02:35:28;95179.66;;;23.46;36.25
43217;BME280;60511;42.686;23.300;2022-10-26T02:37:29;95181.53;;;23.45;36.63
43217;BME280;60511;42.686;23.300;2022-10-26T02:39:31;95182.34;;;23.46;36.22
43217;BME280;60511;42.686;23.300;2022-10-26T02:41:33;95175.34;;;23.45;36.38
43217;BME280;60511;42.686;23.300;2022-10-26T02:43:37;95178.50;;;23.47;36.34
43217;BME280;60511;42.686;23.300;2022-10-26T02:45:43;95178.84;;;23.45;36.60
43217;BME280;60511;42.686;23.300;2022-10-26T02:47:46;95173.44;;;23.45;36.16
43217;BME280;60511;42.686;23.300;2022-10-26T02:49:46;95178.84;;;23.45;36.22
43217;BME280;60511;42.686;23.300;2022-10-26T02:51:48;95176.94;;;23.46;36.51
43217;BME280;60511;42.686;23.300;2022-10-26T02:56:17;95186.03;;;23.41;36.33
43217;BME280;60511;42.686;23.300;2022-10-26T02:58:22;95181.44;;;23.42;36.26
43217;BME280;60511;42.686;23.300;2022-10-26T03:00:25;95185.72;;;23.43;36.26
43217;BME280;60511;42.686;23.300;2022-10-26T03:02:25;95105.72;;;22.89;36.31
43217;BME280;60511;42.686;23.300;2022-10-26T03:04:30;95186.03;;;23.41;36.21
43217;BME280;60511;42.686;23.300;2022-10-26T03:06:31;95193.81;;;23.43;36.26
43217;BME280;60511;42.686;23.300;2022-10-26T03:08:31;95199.22;;;23.43;36.49
43217;BME280;60511;42.686;23.300;2022-10-26T03:10:31;95202.25;;;23.41;36.17
43217;BME280;60511;42.686;23.300;2022-10-26T03:12:32;95204.63;;;23.43;36.18
43217;BME280;60511;42.686;23.300;2022-10-26T03:14:32;95208.47;;;23.42;36.50
43217;BME280;60511;42.686;23.300;2022-10-26T03:16:33;95209.56;;;23.41;36.58
43217;BME280;60511;42.686;23.300;2022-10-26T03:18:33;95203.06;;;23.42;36.38
43217;BME280;60511;42.686;23.300;2022-10-26T03:20:33;95215.31;;;23.39;36.56
43217;BME280;60511;42.686;23.300;2022-10-26T03:22:34;95135.28;;;22.85;36.37
43217;BME280;60511;42.686;23.300;2022-10-26T03:24:34;95209.13;;;23.39;36.20
43217;BME280;60511;42.686;23.300;2022-10-26T03:26:34;95220.72;;;23.39;36.26
43217;BME280;60511;42.686;23.300;2022-10-26T03:28:35;95220.72;;;23.39;36.39
43217;BME280;60511;42.686;23.300;2022-10-26T03:30:35;95218.00;;;23.39;36.30
43217;BME280;60511;42.686;23.300;2022-10-26T03:32:35;95218.00;;;23.39;36.46
43217;BME280;60511;42.686;23.300;2022-10-26T03:34:35;95221.53;;;23.40;36.46
43217;BME280;60511;42.686;23.300;2022-10-26T03:36:36;95218.81;;;23.40;36.24
43217;BME280;60511;42.686;23.300;2022-10-26T03:38:36;95219.94;;;23.39;36.25
43217;BME280;60511;42.686;23.300;2022-10-26T03:40:36;95219.94;;;23.39;36.33
43217;BME280;60511;42.686;23.300;2022-10-26T03:42:37;95222.75;;;23.42;36.43
43217;BME280;60511;42.686;23.300;2022-10-26T03:44:37;95220.84;;;23.43;36.49
43217;BME280;60511;42.686;23.300;2022-10-26T03:46:37;95217.69;;;23.41;36.31
43217;BME280;60511;42.686;23.300;2022-10-26T03:48:38;95218.91;;;23.43;36.32
43217;BME280;60511;42.686;23.300;2022-10-26T03:50:38;95224.22;;;23.40;36.31
43217;BME280;60511;42.686;23.300;2022-10-26T03:52:39;95226.22;;;23.43;36.53
43217;BME280;60511;42.686;23.300;2022-10-26T03:54:39;95220.84;;;23.43;36.68
43217;BME280;60511;42.686;23.300;2022-10-26T03:56:39;95227.00;;;23.43;36.38
43217;BME280;60511;42.686;23.300;2022-10-26T03:58:40;95222.75;;;23.42;36.48
43217;BME280;60511;42.686;23.300;2022-10-26T04:00:40;95218.13;;;23.43;36.54
43217;BME280;60511;42.686;23.300;2022-10-26T04:02:41;95222.50;;;23.47;36.43
43217;BME280;60511;42.686;23.300;2022-10-26T04:04:41;95219.81;;;23.47;36.28
43217;BME280;60511;42.686;23.300;2022-10-26T04:06:41;95154.50;;;22.96;36.65
43217;BME280;60511;42.686;23.300;2022-10-26T04:08:42;95220.38;;;23.41;36.43
43217;BME280;60511;42.686;23.300;2022-10-26T04:10:44;95221.53;;;23.40;36.32
43217;BME280;60511;42.686;23.300;2022-10-26T04:12:44;95230.06;;;23.42;36.19
43217;BME280;60511;42.686;23.300;2022-10-26T04:14:44;95228.16;;;23.42;36.37
43217;BME280;60511;42.686;23.300;2022-10-26T04:16:44;95222.31;;;23.40;36.61
43217;BME280;60511;42.686;23.300;2022-10-26T04:18:45;95232.31;;;23.40;36.49
43217;BME280;60511;42.686;23.300;2022-10-26T04:20:45;95233.44;;;23.39;36.31
43217;BME280;60511;42.686;23.300;2022-10-26T04:22:45;95226.81;;;23.36;36.41
43217;BME280;60511;42.686;23.300;2022-10-26T04:24:46;95223.53;;;23.43;36.33
43217;BME280;60511;42.686;23.300;2022-10-26T04:26:46;95225.00;;;23.40;36.27
43217;BME280;60511;42.686;23.300;2022-10-26T04:28:46;95222.75;;;23.42;36.45
43217;BME280;60511;42.686;23.300;2022-10-26T04:30:46;95220.84;;;23.43;36.31
43217;BME280;60511;42.686;23.300;2022-10-26T04:32:47;95218.81;;;23.40;36.35
43217;BME280;60511;42.686;23.300;2022-10-26T04:34:47;95219.94;;;23.39;36.48
43217;BME280;60511;42.686;23.300;2022-10-26T04:36:48;95216.44;;;23.38;36.52
43217;BME280;60511;42.686;23.300;2022-10-26T04:38:48;95233.09;;;23.40;36.47
43217;BME280;60511;42.686;23.300;2022-10-26T04:40:49;95228.72;;;23.36;36.41
43217;BME280;60511;42.686;23.300;2022-10-26T04:42:49;95237.59;;;23.36;36.28
43217;BME280;60511;42.686;23.300;2022-10-26T04:44:50;95240.63;;;23.35;36.43
43217;BME280;60511;42.686;23.300;2022-10-26T04:46:50;95235.69;;;23.37;36.42
43217;BME280;60511;42.686;23.300;2022-10-26T04:48:50;95230.75;;;23.39;36.26
43217;BME280;60511;42.686;23.300;2022-10-26T04:50:50;95241.09;;;23.37;36.35
43217;BME280;60511;42.686;23.300;2022-10-26T04:52:51;95237.03;;;23.43;36.31
43217;BME280;60511;42.686;23.300;2022-10-26T04:54:51;95247.06;;;23.42;36.30
43217;BME280;60511;42.686;23.300;2022-10-26T04:56:51;95247.97;;;23.46;36.45
43217;BME280;60511;42.686;23.300;2022-10-26T04:58:53;95243.22;;;23.43;36.22
43217;BME280;60511;42.686;23.300;2022-10-26T05:00:53;95249.78;;;23.42;36.29
43217;BME280;60511;42.686;23.300;2022-10-26T05:02:57;95246.75;;;23.44;36.28
43217;BME280;60511;42.686;23.300;2022-10-26T05:04:58;95244.69;;;23.41;36.67
43217;BME280;60511;42.686;23.300;2022-10-26T05:06:58;95256.28;;;23.41;36.29
43217;BME280;60511;42.686;23.300;2022-10-26T05:08:59;95248.19;;;23.41;36.40
43217;BME280;60511;42.686;23.300;2022-10-26T05:10:59;95247.41;;;23.41;36.37
43217;BME280;60511;42.686;23.300;2022-10-26T05:13:00;95249.97;;;23.37;36.42
43217;BME280;60511;42.686;23.300;2022-10-26T05:15:01;95250.44;;;23.39;36.31
43217;BME280;60511;42.686;23.300;2022-10-26T05:17:01;95252.03;;;23.40;36.65
43217;BME280;60511;42.686;23.300;2022-10-26T05:19:01;95246.75;;;23.44;36.63
43217;BME280;60511;42.686;23.300;2022-10-26T05:21:02;95246.63;;;23.40;36.61
43217;BME280;60511;42.686;23.300;2022-10-26T05:23:04;95246.81;;;23.35;36.61
43217;BME280;60511;42.686;23.300;2022-10-26T05:25:05;95247.63;;;23.36;36.69
43217;BME280;60511;42.686;23.300;2022-10-26T05:27:05;95248.75;;;23.35;36.65
43217;BME280;60511;42.686;23.300;2022-10-26T05:29:05;95255.06;;;23.39;36.92
43217;BME280;60511;42.686;23.300;2022-10-26T05:31:07;95256.28;;;23.41;36.95
43217;BME280;60511;42.686;23.300;2022-10-26T05:33:08;95261.22;;;23.39;36.80
43217;BME280;60511;42.686;23.300;2022-10-26T05:35:09;95262.50;;;23.42;36.72
43217;BME280;60511;42.686;23.300;2022-10-26T05:37:09;95260.56;;;23.42;37.14
43217;BME280;60511;42.686;23.300;2022-10-26T05:39:10;95263.28;;;23.42;37.03
43217;BME280;60511;42.686;23.300;2022-10-26T05:41:10;95270.59;;;23.42;37.00
43217;BME280;60511;42.686;23.300;2022-10-26T05:43:10;95271.38;;;23.42;37.01
43217;BME280;60511;42.686;23.300;2022-10-26T05:45:11;95279.16;;;23.44;37.17
43217;BME280;60511;42.686;23.300;2022-10-26T05:47:11;95279.16;;;23.44;36.88
43217;BME280;60511;42.686;23.300;2022-10-26T05:49:12;95284.56;;;23.44;36.74
43217;BME280;60511;42.686;23.300;2022-10-26T05:51:12;95284.09;;;23.42;37.02
43217;BME280;60511;42.686;23.300;2022-10-26T05:53:13;95286.44;;;23.43;36.53
43217;BME280;60511;42.686;23.300;2022-10-26T05:55:14;95289.28;;;23.47;36.68
43217;BME280;60511;42.686;23.300;2022-10-26T05:57:14;95288.16;;;23.48;36.44
43217;BME280;60511;42.686;23.300;2022-10-26T05:59:16;95290.88;;;23.48;36.81
43217;BME280;60511;42.686;23.300;2022-10-26T06:05:49;95300.88;;;23.60;36.76
43217;BME280;60511;42.686;23.300;2022-10-26T06:07:51;95303.81;;;23.67;36.41
43217;BME280;60511;42.686;23.300;2022-10-26T06:09:51;95302.34;;;23.70;36.65
43217;BME280;60511;42.686;23.300;2022-10-26T06:11:52;95305.84;;;23.70;36.63
43217;BME280;60511;42.686;23.300;2022-10-26T06:13:52;95311.72;;;23.72;36.63
43217;BME280;60511;42.686;23.300;2022-10-26T06:19:57;95315.97;;;23.73;36.69
43217;BME280;60511;42.686;23.300;2022-10-26T06:30:26;95314.09;;;23.86;36.60
43217;BME280;60511;42.686;23.300;2022-10-26T06:32:27;95315.56;;;23.83;36.80
43217;BME280;60511;42.686;23.300;2022-10-26T06:34:28;95316.34;;;23.84;36.74
43217;BME280;60511;42.686;23.300;2022-10-26T06:36:32;95316.47;;;23.88;36.84
43217;BME280;60511;42.686;23.300;2022-10-26T06:38:33;95311.81;;;23.88;36.89
43217;BME280;60511;42.686;23.300;2022-10-26T06:40:34;95316.25;;;23.93;36.88
43217;BME280;60511;42.686;23.300;2022-10-26T06:42:35;95315.78;;;23.91;36.99
43217;BME280;60511;42.686;23.300;2022-10-26T06:44:36;95314.31;;;23.93;36.89
43217;BME280;60511;42.686;23.300;2022-10-26T06:46:44;95319.41;;;23.95;36.77
43217;BME280;60511;42.686;23.300;2022-10-26T06:48:49;95329.84;;;23.96;36.85
43217;BME280;60511;42.686;23.300;2022-10-26T06:50:51;95327.16;;;23.96;36.99
43217;BME280;60511;42.686;23.300;2022-10-26T06:54:58;95327.59;;;23.98;36.83
43217;BME280;60511;42.686;23.300;2022-10-26T06:56:59;95240.53;;;23.43;37.07
43217;BME280;60511;42.686;23.300;2022-10-26T06:59:02;95331.00;;;23.95;37.07
43217;BME280;60511;42.686;23.300;2022-10-26T07:01:05;95328.63;;;23.94;37.14
43217;BME280;60511;42.686;23.300;2022-10-26T07:03:06;95330.22;;;23.95;37.31
43217;BME280;60511;42.686;23.300;2022-10-26T07:05:06;95258.09;;;23.50;37.16
43217;BME280;60511;42.686;23.300;2022-10-26T07:07:13;95330.88;;;23.92;37.29
43217;BME280;60511;42.686;23.300;2022-10-26T07:09:14;95330.66;;;23.97;37.27
43217;BME280;60511;42.686;23.300;2022-10-26T07:11:15;95333.44;;;24.00;37.32
43217;BME280;60511;42.686;23.300;2022-10-26T07:13:15;95335.81;;;24.02;36.98
43217;BME280;60511;42.686;23.300;2022-10-26T07:15:15;95342.00;;;24.02;36.75
43217;BME280;60511;42.686;23.300;2022-10-26T07:17:15;95336.38;;;24.08;36.90
43217;BME280;60511;42.686;23.300;2022-10-26T07:19:16;95335.94;;;24.05;37.00
43217;BME280;60511;42.686;23.300;2022-10-26T07:21:16;95337.06;;;24.04;37.13
43217;BME280;60511;42.686;23.300;2022-10-26T07:23:17;95337.06;;;24.04;37.18
43217;BME280;60511;42.686;23.300;2022-10-26T07:25:17;95330.97;;;24.08;36.83
43217;BME280;60511;42.686;23.300;2022-10-26T07:27:17;95336.50;;;24.11;37.07
43217;BME280;60511;42.686;23.300;2022-10-26T07:29:23;95336.16;;;24.13;36.86
43217;BME280;60511;42.686;23.300;2022-10-26T07:31:23;95337.28;;;24.12;37.06
43217;BME280;60511;42.686;23.300;2022-10-26T07:33:25;95337.75;;;24.14;37.12
43217;BME280;60511;42.686;23.300;2022-10-26T07:35:25;95333.09;;;24.14;36.86
43217;BME280;60511;42.686;23.300;2022-10-26T07:37:25;95334.00;;;24.18;37.05
43217;BME280;60511;42.686;23.300;2022-10-26T07:39:25;95336.81;;;24.22;36.97
43217;BME280;60511;42.686;23.300;2022-10-26T07:41:26;95335.69;;;24.23;37.04
43217;BME280;60511;42.686;23.300;2022-10-26T07:43:27;95330.63;;;24.21;37.01
43217;BME280;60511;42.686;23.300;2022-10-26T07:45:28;95324.88;;;24.23;36.95
43217;BME280;60511;42.686;23.300;2022-10-26T07:47:28;95326.44;;;24.24;36.86
43217;BME280;60511;42.686;23.300;2022-10-26T07:49:29;95327.56;;;24.23;36.81
43217;BME280;60511;42.686;23.300;2022-10-26T07:51:29;95330.38;;;24.26;37.03
43217;BME280;60511;42.686;23.300;2022-10-26T07:53:29;95326.13;;;24.25;36.90
43217;BME280;60511;42.686;23.300;2022-10-26T07:55:29;95326.13;;;24.25;36.81
43217;BME280;60511;42.686;23.300;2022-10-26T07:57:30;95322.38;;;24.30;36.72
43217;BME280;60511;42.686;23.300;2022-10-26T07:59:30;95322.72;;;24.29;36.70
43217;BME280;60511;42.686;23.300;2022-10-26T08:01:30;95325.09;;;24.30;36.64
43217;BME280;60511;42.686;23.300;2022-10-26T08:03:30;95320.13;;;24.32;36.69
43217;BME280;60511;42.686;23.300;2022-10-26T08:05:31;95327.78;;;24.30;36.58
43217;BME280;60511;42.686;23.300;2022-10-26T08:07:31;95325.53;;;24.32;36.80
43217;BME280;60511;42.686;23.300;2022-10-26T08:09:31;95321.34;;;24.35;37.01
43217;BME280;60511;42.686;23.300;2022-10-26T08:11:31;95324.06;;;24.35;36.90
43217;BME280;60511;42.686;23.300;2022-10-26T08:13:32;95325.28;;;24.37;36.91
43217;BME280;60511;42.686;23.300;2022-10-26T08:15:35;95329.59;;;24.38;36.61
43217;BME280;60511;42.686;23.300;2022-10-26T08:17:36;95324.50;;;24.37;36.74
43217;BME280;60511;42.686;23.300;2022-10-26T08:19:37;95326.88;;;24.38;37.08
43217;BME280;60511;42.686;23.300;2022-10-26T08:21:37;95319.09;;;24.37;36.70
43217;BME280;60511;42.686;23.300;2022-10-26T08:23:38;95313.22;;;24.35;36.96
43217;BME280;60511;42.686;23.300;2022-10-26T08:25:38;95319.88;;;24.37;36.84
43217;BME280;60511;42.686;23.300;2022-10-26T08:27:38;95325.53;;;24.32;37.05
43217;BME280;60511;42.686;23.300;2022-10-26T08:29:38;95318.75;;;24.38;36.90
43217;BME280;60511;42.686;23.300;2022-10-26T08:31:39;95316.84;;;24.39;37.18
43217;BME280;60511;42.686;23.300;2022-10-26T08:33:39;95317.09;;;24.34;37.03
43217;BME280;60511;42.686;23.300;2022-10-26T08:35:39;95319.34;;;24.32;37.21
43217;BME280;60511;42.686;23.300;2022-10-26T08:37:39;95317.16;;;24.37;37.07
43217;BME280;60511;42.686;23.300;2022-10-26T08:39:40;95318.75;;;24.38;37.14
43217;BME280;60511;42.686;23.300;2022-10-26T08:41:46;95314.91;;;24.39;36.97
43217;BME280;60511;42.686;23.300;2022-10-26T08:43:53;95316.94;;;24.42;36.91
43217;BME280;60511;42.686;23.300;2022-10-26T08:46:38;95320.75;;;24.41;36.89
43217;BME280;60511;42.686;23.300;2022-10-26T08:48:20;95314.56;;;24.41;36.96
43217;BME280;60511;42.686;23.300;2022-10-26T08:50:30;95317.28;;;24.41;37.16
43217;BME280;60511;42.686;23.300;2022-10-26T08:52:35;95316.94;;;24.42;36.87
43217;BME280;60511;42.686;23.300;2022-10-26T08:54:37;95324.28;;;24.42;37.26
43217;BME280;60511;42.686;23.300;2022-10-26T08:56:40;95330.38;;;24.39;37.24
43217;BME280;60511;42.686;23.300;2022-10-26T08:58:44;95322.03;;;24.44;37.01
43217;BME280;60511;42.686;23.300;2022-10-26T09:00:46;95327.31;;;24.40;37.09
43217;BME280;60511;42.686;23.300;2022-10-26T09:02:51;95332.72;;;24.40;37.10
43217;BME280;60511;42.686;23.300;2022-10-26T09:04:52;95332.41;;;24.42;37.19
43217;BME280;60511;42.686;23.300;2022-10-26T09:09:05;95332.03;;;24.43;37.21
43217;BME280;60511;42.686;23.300;2022-10-26T09:11:09;95325.19;;;24.46;37.13
43217;BME280;60511;42.686;23.300;2022-10-26T09:15:23;95324.03;;;24.47;37.07
43217;BME280;60511;42.686;23.300;2022-10-26T09:19:50;95315.56;;;24.49;37.08
43217;BME280;60511;42.686;23.300;2022-10-26T09:22:11;95317.50;;;24.48;37.08
43217;BME280;60511;42.686;23.300;2022-10-26T09:24:20;95322.91;;;24.48;36.99
43217;BME280;60511;42.686;23.300;2022-10-26T09:26:27;95318.28;;;24.49;37.12
43217;BME280;60511;42.686;23.300;2022-10-26T09:28:30;95320.53;;;24.46;37.25
43217;BME280;60511;42.686;23.300;2022-10-26T09:30:32;95317.84;;;24.46;37.10
43217;BME280;60511;42.686;23.300;2022-10-26T09:32:35;95317.06;;;24.46;37.14
43217;BME280;60511;42.686;23.300;2022-10-26T09:34:38;95321.75;;;24.49;37.25
43217;BME280;60511;42.686;23.300;2022-10-26T09:36:43;95315.81;;;24.43;37.15
43217;BME280;60511;42.686;23.300;2022-10-26T09:41:00;95318.50;;;24.56;37.02
43217;BME280;60511;42.686;23.300;2022-10-26T09:43:05;95314.22;;;24.55;37.07
43217;BME280;60511;42.686;23.300;2022-10-26T09:45:12;95311.75;;;24.50;37.03
43217;BME280;60511;42.686;23.300;2022-10-26T09:47:36;95302.97;;;24.53;36.81
43217;BME280;60511;42.686;23.300;2022-10-26T09:49:57;95308.38;;;24.53;37.07
43217;BME280;60511;42.686;23.300;2022-10-26T09:51:55;95149.22;;;23.49;37.08
43217;BME280;60511;42.686;23.300;2022-10-26T09:53:56;95305.22;;;24.51;37.00
43217;BME280;60511;42.686;23.300;2022-10-26T09:56:02;95300.47;;;24.47;37.00
43217;BME280;60511;42.686;23.300;2022-10-26T09:58:05;95309.50;;;24.52;36.91
43217;BME280;60511;42.686;23.300;2022-10-26T10:00:13;95303.75;;;24.53;37.13
43217;BME280;60511;42.686;23.300;2022-10-26T10:02:33;95300.94;;;24.50;36.96
43217;BME280;60511;42.686;23.300;2022-10-26T10:04:33;95294.72;;;24.49;37.05
43217;BME280;60511;42.686;23.300;2022-10-26T10:06:34;95289.44;;;24.53;36.99
43217;BME280;60511;42.686;23.300;2022-10-26T10:08:34;95287.94;;;24.55;37.05
43217;BME280;60511;42.686;23.300;2022-10-26T10:10:34;95290.66;;;24.55;36.87
43217;BME280;60511;42.686;23.300;2022-10-26T10:12:34;95285.94;;;24.52;37.10
43217;BME280;60511;42.686;23.300;2022-10-26T10:14:38;95284.03;;;24.53;36.77
43217;BME280;60511;42.686;23.300;2022-10-26T10:16:39;95284.81;;;24.53;36.85
43217;BME280;60511;42.686;23.300;2022-10-26T10:18:40;95280.97;;;24.54;36.90
43217;BME280;60511;42.686;23.300;2022-10-26T10:20:48;95273.31;;;24.56;36.78
43217;BME280;60511;42.686;23.300;2022-10-26T10:22:53;95276.34;;;24.55;37.16
43217;BME280;60511;42.686;23.300;2022-10-26T10:24:54;95276.34;;;24.55;36.89
43217;BME280;60511;42.686;23.300;2022-10-26T10:28:59;95275.19;;;24.56;36.72
43217;BME280;60511;42.686;23.300;2022-10-26T10:31:01;95275.75;;;24.49;36.81
43217;BME280;60511;42.686;23.300;2022-10-26T10:33:05;95264.75;;;24.54;36.85
43217;BME280;60511;42.686;23.300;2022-10-26T10:35:21;95275.47;;;24.51;37.00
43217;BME280;60511;42.686;23.300;2022-10-26T10:37:28;95264.94;;;24.49;36.61
43217;BME280;60511;42.686;23.300;2022-10-26T10:39:36;95262.13;;;24.45;37.17
43217;BME280;60511;42.686;23.300;2022-10-26T10:41:37;95258.06;;;24.52;36.94
43217;BME280;60511;42.686;23.300;2022-10-26T10:43:41;95262.03;;;24.54;36.88
43217;BME280;60511;42.686;23.300;2022-10-26T10:45:49;95262.81;;;24.55;36.88
43217;BME280;60511;42.686;23.300;2022-10-26T10:50:20;95254.00;;;24.58;36.75
43217;BME280;60511;42.686;23.300;2022-10-26T10:52:22;95254.81;;;24.58;36.72
43217;BME280;60511;42.686;23.300;2022-10-26T10:56:28;95252.88;;;24.59;36.67
43217;BME280;60511;42.686;23.300;2022-10-26T11:00:50;95242.72;;;24.56;36.95
43217;BME280;60511;42.686;23.300;2022-10-26T11:06:58;95239.69;;;24.57;36.79
43217;BME280;60511;42.686;23.300;2022-10-26T11:09:04;95233.16;;;24.58;36.80
43217;BME280;60511;42.686;23.300;2022-10-26T11:11:10;95228.06;;;24.57;36.91
43217;BME280;60511;42.686;23.300;2022-10-26T11:13:17;95224.66;;;24.60;36.98
43217;BME280;60511;42.686;23.300;2022-10-26T11:15:21;95228.97;;;24.61;36.73
43217;BME280;60511;42.686;23.300;2022-10-26T11:17:24;95226.25;;;24.61;36.59
43217;BME280;60511;42.686;23.300;2022-10-26T11:21:26;95228.84;;;24.57;36.74
43217;BME280;60511;42.686;23.300;2022-10-26T11:23:36;95233.81;;;24.55;36.86
43217;BME280;60511;42.686;23.300;2022-10-26T11:25:46;95235.50;;;24.60;36.63
43217;BME280;60511;42.686;23.300;2022-10-26T11:27:50;95232.78;;;24.60;36.58
43217;BME280;60511;42.686;23.300;2022-10-26T11:32:18;95224.66;;;24.60;36.67
43217;BME280;60511;42.686;23.300;2022-10-26T11:36:21;95230.78;;;24.57;36.57
43217;BME280;60511;42.686;23.300;2022-10-26T11:40:41;95216.47;;;24.56;36.58
43217;BME280;60511;42.686;23.300;2022-10-26T11:44:52;95223.88;;;24.59;36.32
43217;BME280;60511;42.686;23.300;2022-10-26T11:47:01;95159.78;;;24.19;36.75
43217;BME280;60511;42.686;23.300;2022-10-26T11:51:39;95220.84;;;24.61;36.35
43217;BME280;60511;42.686;23.300;2022-10-26T11:53:41;95215.44;;;24.61;36.38
43217;BME280;60511;42.686;23.300;2022-10-26T11:55:52;95216.66;;;24.63;36.37
43217;BME280;60511;42.686;23.300;2022-10-26T11:57:56;95221.28;;;24.63;36.64
43217;BME280;60511;42.686;23.300;2022-10-26T11:59:58;95209.56;;;24.59;36.39
43217;BME280;60511;42.686;23.300;2022-10-26T12:02:01;95207.66;;;24.59;36.29
43217;BME280;60511;42.686;23.300;2022-10-26T12:04:04;95205.03;;;24.63;35.99
43217;BME280;60511;42.686;23.300;2022-10-26T12:06:05;95205.03;;;24.63;35.69